createdAt,value
2018-12-17T00:00:31.566Z,2.07
2018-12-17T00:01:27.637Z,2.11
2018-12-17T00:02:24.697Z,2.10
2018-12-17T00:03:21.769Z,2.08
2018-12-17T00:04:18.913Z,2.07
2018-12-17T00:05:15.923Z,2.07
2018-12-17T00:06:12.988Z,2.08
2018-12-17T00:07:10.038Z,2.09
2018-12-17T00:08:07.106Z,2.09
2018-12-17T00:09:04.168Z,2.13
2018-12-17T00:10:01.235Z,2.13
2018-12-17T00:10:58.302Z,2.10
2018-12-17T00:11:55.357Z,2.10
2018-12-17T00:12:52.442Z,2.10
2018-12-17T00:13:49.502Z,2.10
2018-12-17T00:14:46.583Z,2.09
2018-12-17T00:15:43.629Z,2.08
2018-12-17T00:16:40.700Z,2.09
2018-12-17T00:17:37.774Z,2.11
2018-12-17T00:18:34.830Z,2.14
2018-12-17T00:19:31.907Z,2.13
2018-12-17T00:20:28.958Z,2.14
2018-12-17T00:21:26.050Z,2.15
2018-12-17T00:22:23.098Z,2.14
2018-12-17T00:23:20.167Z,2.11
2018-12-17T00:24:17.239Z,2.07
2018-12-17T00:25:14.301Z,2.08
2018-12-17T00:26:11.383Z,2.07
2018-12-17T00:27:08.426Z,2.10
2018-12-17T00:28:08.237Z,2.13
2018-12-17T00:29:02.565Z,2.11
2018-12-17T00:29:59.631Z,2.17
2018-12-17T00:30:56.703Z,2.18
2018-12-17T00:31:53.764Z,2.19
2018-12-17T00:32:50.832Z,2.19
2018-12-17T00:33:47.892Z,2.18
2018-12-17T00:34:44.972Z,2.18
2018-12-17T00:35:42.031Z,2.17
2018-12-17T00:36:39.110Z,2.14
2018-12-17T00:37:36.169Z,2.18
2018-12-17T00:38:33.233Z,2.17
2018-12-17T00:39:30.296Z,2.19
2018-12-17T00:40:27.357Z,2.16
2018-12-17T00:41:24.474Z,2.15
2018-12-17T00:42:21.498Z,2.10
2018-12-17T00:43:18.566Z,2.14
2018-12-17T00:44:15.637Z,2.09
2018-12-17T00:45:12.699Z,2.14
2018-12-17T00:46:09.778Z,2.10
2018-12-17T00:47:06.833Z,2.09
2018-12-17T00:48:03.918Z,2.09
2018-12-17T00:49:00.961Z,2.08
2018-12-17T00:49:58.038Z,2.09
2018-12-17T00:50:55.101Z,2.14
2018-12-17T00:51:52.170Z,2.10
2018-12-17T00:52:49.247Z,2.13
2018-12-17T00:53:46.291Z,2.14
2018-12-17T00:54:43.389Z,2.16
2018-12-17T00:55:40.427Z,2.14
2018-12-17T00:56:37.511Z,2.14
2018-12-17T00:57:34.569Z,2.14
2018-12-17T00:58:31.626Z,2.16
2018-12-17T00:59:28.711Z,2.14
2018-12-17T01:00:25.767Z,2.16
2018-12-17T01:01:22.838Z,2.16
2018-12-17T01:02:19.902Z,2.16
2018-12-17T01:03:16.966Z,2.14
2018-12-17T01:04:14.033Z,2.16
2018-12-17T01:05:11.104Z,2.16
2018-12-17T01:06:08.168Z,2.16
2018-12-17T01:07:05.241Z,2.15
2018-12-17T01:08:02.299Z,2.17
2018-12-17T01:08:59.368Z,2.16
2018-12-17T01:09:56.435Z,2.18
2018-12-17T01:10:54.498Z,2.16
2018-12-17T01:11:50.562Z,2.16
2018-12-17T01:12:47.642Z,2.17
2018-12-17T01:13:44.701Z,2.17
2018-12-17T01:14:41.764Z,2.20
2018-12-17T01:15:38.834Z,2.19
2018-12-17T01:16:35.900Z,2.20
2018-12-17T01:17:32.973Z,2.18
2018-12-17T01:18:30.026Z,2.17
2018-12-17T01:19:27.099Z,2.18
2018-12-17T01:20:24.164Z,2.17
2018-12-17T01:21:21.235Z,2.17
2018-12-17T01:22:18.305Z,2.18
2018-12-17T01:23:15.370Z,2.19
2018-12-17T01:24:13.423Z,2.19
2018-12-17T01:25:09.497Z,2.19
2018-12-17T01:26:06.565Z,2.20
2018-12-17T01:27:03.631Z,2.23
2018-12-17T01:28:00.699Z,2.22
2018-12-17T01:28:57.769Z,2.21
2018-12-17T01:29:54.835Z,2.20
2018-12-17T01:30:51.906Z,2.20
2018-12-17T01:31:48.968Z,2.21
2018-12-17T01:32:46.037Z,2.21
2018-12-17T01:33:43.102Z,2.21
2018-12-17T01:34:40.168Z,2.21
2018-12-17T01:35:37.232Z,2.21
2018-12-17T01:36:34.299Z,2.22
2018-12-17T01:37:32.368Z,2.22
2018-12-17T01:38:28.432Z,2.21
2018-12-17T01:39:25.494Z,2.23
2018-12-17T01:40:22.559Z,2.22
2018-12-17T01:41:19.632Z,2.21
2018-12-17T01:42:16.697Z,2.21
2018-12-17T01:43:13.774Z,2.20
2018-12-17T01:44:11.827Z,2.21
2018-12-17T01:45:07.898Z,2.20
2018-12-17T01:46:04.972Z,2.21
2018-12-17T01:47:02.032Z,2.20
2018-12-17T01:47:59.123Z,2.21
2018-12-17T01:48:56.166Z,2.22
2018-12-17T01:49:53.237Z,2.22
2018-12-17T01:50:51.299Z,2.19
2018-12-17T01:51:47.364Z,2.20
2018-12-17T01:52:44.432Z,2.21
2018-12-17T01:53:41.495Z,2.20
2018-12-17T01:54:38.567Z,2.23
2018-12-17T01:55:35.634Z,2.23
2018-12-17T01:56:32.709Z,2.25
2018-12-17T01:57:29.799Z,2.24
2018-12-17T01:58:29.261Z,2.24
2018-12-17T01:59:23.890Z,2.26
2018-12-17T02:00:20.966Z,2.24
2018-12-17T02:01:18.053Z,2.24
2018-12-17T02:02:15.100Z,2.24
2018-12-17T02:03:12.213Z,2.25
2018-12-17T02:04:09.234Z,2.24
2018-12-17T02:05:06.305Z,2.26
2018-12-17T02:06:03.364Z,2.23
2018-12-17T02:07:00.428Z,2.23
2018-12-17T02:07:57.799Z,2.23
2018-12-17T02:08:54.565Z,2.22
2018-12-17T02:09:51.639Z,2.21
2018-12-17T02:10:48.701Z,2.18
2018-12-17T02:11:45.765Z,2.21
2018-12-17T02:12:42.846Z,2.24
2018-12-17T02:13:39.907Z,2.24
2018-12-17T02:14:36.966Z,2.22
2018-12-17T02:15:34.038Z,2.25
2018-12-17T02:16:31.175Z,2.24
2018-12-17T02:17:28.167Z,2.24
2018-12-17T02:18:25.261Z,2.24
2018-12-17T02:19:22.299Z,2.26
2018-12-17T02:20:19.372Z,2.22
2018-12-17T02:21:16.434Z,2.22
2018-12-17T02:22:13.497Z,2.20
2018-12-17T02:23:10.571Z,2.22
2018-12-17T02:24:07.641Z,2.20
2018-12-17T02:25:04.699Z,2.23
2018-12-17T02:26:01.760Z,2.23
2018-12-17T02:26:58.834Z,2.22
2018-12-17T02:27:55.899Z,2.22
2018-12-17T02:28:52.967Z,2.21
2018-12-17T02:29:50.044Z,2.20
2018-12-17T02:30:47.099Z,2.22
2018-12-17T02:31:44.169Z,2.24
2018-12-17T02:32:41.236Z,2.23
2018-12-17T02:33:38.361Z,2.21
2018-12-17T02:34:35.366Z,2.23
2018-12-17T02:35:32.432Z,2.24
2018-12-17T02:36:29.508Z,2.24
2018-12-17T02:37:26.566Z,2.24
2018-12-17T02:38:23.650Z,2.23
2018-12-17T02:39:20.707Z,2.23
2018-12-17T02:40:17.769Z,2.24
2018-12-17T02:41:14.836Z,2.24
2018-12-17T02:42:11.894Z,2.24
2018-12-17T02:43:08.975Z,2.21
2018-12-17T02:44:06.038Z,2.21
2018-12-17T02:45:03.104Z,2.25
2018-12-17T02:46:00.283Z,2.24
2018-12-17T02:46:57.236Z,2.23
2018-12-17T02:47:54.301Z,2.25
2018-12-17T02:48:51.378Z,2.23
2018-12-17T02:49:48.443Z,2.25
2018-12-17T02:50:45.499Z,2.25
2018-12-17T02:51:42.575Z,2.26
2018-12-17T02:52:39.636Z,2.24
2018-12-17T02:53:36.732Z,2.26
2018-12-17T02:54:33.772Z,2.26
2018-12-17T02:55:30.827Z,2.25
2018-12-17T02:56:27.910Z,2.26
2018-12-17T02:57:24.971Z,2.26
2018-12-17T02:58:22.046Z,2.25
2018-12-17T02:59:19.107Z,2.26
2018-12-17T03:00:16.168Z,2.26
2018-12-17T03:01:13.234Z,2.25
2018-12-17T03:02:10.298Z,2.26
2018-12-17T03:03:07.373Z,2.26
2018-12-17T03:04:05.438Z,2.26
2018-12-17T03:05:01.506Z,2.26
2018-12-17T03:05:58.559Z,2.26
2018-12-17T03:06:55.632Z,2.26
2018-12-17T03:07:52.703Z,2.26
2018-12-17T03:08:49.757Z,2.27
2018-12-17T03:09:46.829Z,2.27
2018-12-17T03:10:43.900Z,2.28
2018-12-17T03:11:40.977Z,2.26
2018-12-17T03:12:38.028Z,2.25
2018-12-17T03:13:35.105Z,2.26
2018-12-17T03:14:32.185Z,2.26
2018-12-17T03:15:29.224Z,2.26
2018-12-17T03:16:26.306Z,2.26
2018-12-17T03:17:23.371Z,2.26
2018-12-17T03:18:20.436Z,2.25
2018-12-17T03:19:17.519Z,2.26
2018-12-17T03:20:14.562Z,2.27
2018-12-17T03:21:11.636Z,2.28
2018-12-17T03:22:08.692Z,2.26
2018-12-17T03:23:05.772Z,2.26
2018-12-17T03:24:02.825Z,2.28
2018-12-17T03:24:59.904Z,2.28
2018-12-17T03:25:56.959Z,2.29
2018-12-17T03:26:54.037Z,2.29
2018-12-17T03:27:51.098Z,2.28
2018-12-17T03:28:51.537Z,2.28
2018-12-17T03:29:45.248Z,2.28
2018-12-17T03:30:42.423Z,2.27
2018-12-17T03:31:39.394Z,2.27
2018-12-17T03:32:36.432Z,2.28
2018-12-17T03:33:33.500Z,2.28
2018-12-17T03:34:30.571Z,2.26
2018-12-17T03:35:27.632Z,2.27
2018-12-17T03:36:24.698Z,2.27
2018-12-17T03:37:21.768Z,2.28
2018-12-17T03:38:18.838Z,2.28
2018-12-17T03:39:15.899Z,2.28
2018-12-17T03:40:12.970Z,2.29
2018-12-17T03:41:10.035Z,2.28
2018-12-17T03:42:07.094Z,2.28
2018-12-17T03:43:04.165Z,2.27
2018-12-17T03:44:01.227Z,2.30
2018-12-17T03:44:58.566Z,2.30
2018-12-17T03:45:55.367Z,2.28
2018-12-17T03:46:52.432Z,2.28
2018-12-17T03:47:49.506Z,2.30
2018-12-17T03:48:46.612Z,2.32
2018-12-17T03:49:43.643Z,2.29
2018-12-17T03:50:40.700Z,2.27
2018-12-17T03:51:37.764Z,2.26
2018-12-17T03:52:34.824Z,2.27
2018-12-17T03:53:31.901Z,2.28
2018-12-17T03:54:28.966Z,2.26
2018-12-17T03:55:26.039Z,2.26
2018-12-17T03:56:23.107Z,2.25
2018-12-17T03:57:20.164Z,2.26
2018-12-17T03:58:17.238Z,2.28
2018-12-17T03:59:14.301Z,2.29
2018-12-17T04:00:11.407Z,2.28
2018-12-17T04:01:09.426Z,2.27
2018-12-17T04:02:05.497Z,2.28
2018-12-17T04:03:02.562Z,2.28
2018-12-17T04:03:59.627Z,2.30
2018-12-17T04:04:56.700Z,2.29
2018-12-17T04:05:53.766Z,2.30
2018-12-17T04:06:50.834Z,2.30
2018-12-17T04:07:47.900Z,2.29
2018-12-17T04:08:44.975Z,2.30
2018-12-17T04:09:42.030Z,2.28
2018-12-17T04:10:39.954Z,2.25
2018-12-17T04:11:36.176Z,2.26
2018-12-17T04:12:33.234Z,2.27
2018-12-17T04:13:30.299Z,2.29
2018-12-17T04:14:28.364Z,2.27
2018-12-17T04:15:24.450Z,2.28
2018-12-17T04:16:21.501Z,2.26
2018-12-17T04:17:18.574Z,2.27
2018-12-17T04:18:15.632Z,2.30
2018-12-17T04:19:12.700Z,2.30
2018-12-17T04:20:09.774Z,2.29
2018-12-17T04:21:06.832Z,2.27
2018-12-17T04:22:03.896Z,2.28
2018-12-17T04:23:00.972Z,2.29
2018-12-17T04:23:58.031Z,2.27
2018-12-17T04:24:55.098Z,2.30
2018-12-17T04:25:52.170Z,2.29
2018-12-17T04:26:49.237Z,2.29
2018-12-17T04:27:47.299Z,2.30
2018-12-17T04:28:43.360Z,2.27
2018-12-17T04:29:40.429Z,2.28
2018-12-17T04:30:37.506Z,2.27
2018-12-17T04:31:34.867Z,2.32
2018-12-17T04:32:31.635Z,2.33
2018-12-17T04:33:28.700Z,2.32
2018-12-17T04:34:25.764Z,2.28
2018-12-17T04:35:22.828Z,2.29
2018-12-17T04:36:19.909Z,2.29
2018-12-17T04:37:16.978Z,2.30
2018-12-17T04:38:14.031Z,2.29
2018-12-17T04:39:11.102Z,2.29
2018-12-17T04:40:08.170Z,2.28
2018-12-17T04:41:05.240Z,2.30
2018-12-17T04:42:02.306Z,2.31
2018-12-17T04:42:59.371Z,2.31
2018-12-17T04:43:56.434Z,2.30
2018-12-17T04:44:53.492Z,2.27
2018-12-17T04:45:50.569Z,2.27
2018-12-17T04:46:47.647Z,2.26
2018-12-17T04:47:44.696Z,2.28
2018-12-17T04:48:41.771Z,2.27
2018-12-17T04:49:38.830Z,2.30
2018-12-17T04:50:35.954Z,2.29
2018-12-17T04:51:33.268Z,2.28
2018-12-17T04:52:30.023Z,2.28
2018-12-17T04:53:27.129Z,2.30
2018-12-17T04:54:24.165Z,2.31
2018-12-17T04:55:21.231Z,2.33
2018-12-17T04:56:18.307Z,2.32
2018-12-17T04:57:15.376Z,2.30
2018-12-17T04:58:12.442Z,2.32
2018-12-17T04:59:14.559Z,2.35
2018-12-17T05:00:06.578Z,2.33
2018-12-17T05:01:03.633Z,2.34
2018-12-17T05:02:00.701Z,2.34
2018-12-17T05:02:57.760Z,2.32
2018-12-17T05:03:54.838Z,2.32
2018-12-17T05:04:51.897Z,2.32
2018-12-17T05:05:48.955Z,2.35
2018-12-17T05:06:46.042Z,2.36
2018-12-17T05:07:43.098Z,2.35
2018-12-17T05:08:40.166Z,2.34
2018-12-17T05:09:37.235Z,2.35
2018-12-17T05:10:34.303Z,2.35
2018-12-17T05:11:31.368Z,2.36
2018-12-17T05:12:28.470Z,2.38
2018-12-17T05:13:25.513Z,2.38
2018-12-17T05:14:22.565Z,2.36
2018-12-17T05:15:19.643Z,2.38
2018-12-17T05:16:16.694Z,2.39
2018-12-17T05:17:13.774Z,2.39
2018-12-17T05:18:10.831Z,2.39
2018-12-17T05:19:07.896Z,2.40
2018-12-17T05:20:04.970Z,2.39
2018-12-17T05:21:02.034Z,2.40
2018-12-17T05:21:59.107Z,2.42
2018-12-17T05:22:56.156Z,2.40
2018-12-17T05:23:53.237Z,2.41
2018-12-17T05:24:50.298Z,2.41
2018-12-17T05:25:47.819Z,2.42
2018-12-17T05:26:44.438Z,2.42
2018-12-17T05:27:41.504Z,2.44
2018-12-17T05:28:38.575Z,2.45
2018-12-17T05:29:35.619Z,2.45
2018-12-17T05:30:32.692Z,2.45
2018-12-17T05:31:29.757Z,2.46
2018-12-17T05:32:26.890Z,2.47
2018-12-17T05:33:23.901Z,2.46
2018-12-17T05:34:20.965Z,2.47
2018-12-17T05:35:18.045Z,2.48
2018-12-17T05:36:15.103Z,2.49
2018-12-17T05:37:12.171Z,2.48
2018-12-17T05:38:09.226Z,2.50
2018-12-17T05:39:06.299Z,2.47
2018-12-17T05:40:03.361Z,2.50
2018-12-17T05:41:00.433Z,2.49
2018-12-17T05:41:57.523Z,2.49
2018-12-17T05:42:54.572Z,2.49
2018-12-17T05:43:51.630Z,2.50
2018-12-17T05:44:48.693Z,2.49
2018-12-17T05:45:45.763Z,2.52
2018-12-17T05:46:42.835Z,2.52
2018-12-17T05:47:39.905Z,2.50
2018-12-17T05:48:36.972Z,2.50
2018-12-17T05:49:34.050Z,2.50
2018-12-17T05:50:31.101Z,2.52
2018-12-17T05:51:28.167Z,2.52
2018-12-17T05:52:25.229Z,2.52
2018-12-17T05:53:22.292Z,2.53
2018-12-17T05:54:19.371Z,2.53
2018-12-17T05:55:16.565Z,2.56
2018-12-17T05:56:13.495Z,2.56
2018-12-17T05:57:10.570Z,2.53
2018-12-17T05:58:07.668Z,2.54
2018-12-17T05:59:04.692Z,2.55
2018-12-17T06:00:01.766Z,2.53
2018-12-17T06:00:58.836Z,2.53
2018-12-17T06:01:55.919Z,2.53
2018-12-17T06:02:52.953Z,2.53
2018-12-17T06:03:50.041Z,2.55
2018-12-17T06:04:47.104Z,2.55
2018-12-17T06:05:44.216Z,2.55
2018-12-17T06:06:41.227Z,2.53
2018-12-17T06:07:38.290Z,2.54
2018-12-17T06:08:35.374Z,2.56
2018-12-17T06:09:32.426Z,2.55
2018-12-17T06:10:29.496Z,2.54
2018-12-17T06:11:27.536Z,2.55
2018-12-17T06:12:23.623Z,2.55
2018-12-17T06:13:20.729Z,2.55
2018-12-17T06:14:17.759Z,2.55
2018-12-17T06:15:14.859Z,2.56
2018-12-17T06:16:11.898Z,2.55
2018-12-17T06:17:08.972Z,2.56
2018-12-17T06:18:06.034Z,2.56
2018-12-17T06:19:03.097Z,2.56
2018-12-17T06:20:00.168Z,2.56
2018-12-17T06:20:57.331Z,2.58
2018-12-17T06:21:54.306Z,2.57
2018-12-17T06:22:51.368Z,2.57
2018-12-17T06:23:48.438Z,2.58
2018-12-17T06:24:45.503Z,2.59
2018-12-17T06:25:42.564Z,2.63
2018-12-17T06:26:39.636Z,2.60
2018-12-17T06:27:38.517Z,2.63
2018-12-17T06:28:34.047Z,2.61
2018-12-17T06:29:35.583Z,2.61
2018-12-17T06:30:27.911Z,2.61
2018-12-17T06:31:24.963Z,2.61
2018-12-17T06:32:22.029Z,2.61
2018-12-17T06:33:19.092Z,2.63
2018-12-17T06:34:16.159Z,2.63
2018-12-17T06:35:13.230Z,2.61
2018-12-17T06:36:10.299Z,2.65
2018-12-17T06:37:07.363Z,2.65
2018-12-17T06:38:04.434Z,2.64
2018-12-17T06:39:01.497Z,2.63
2018-12-17T06:39:58.561Z,2.64
2018-12-17T06:40:55.630Z,2.66
2018-12-17T06:41:52.697Z,2.65
2018-12-17T06:42:49.765Z,2.66
2018-12-17T06:43:46.834Z,2.64
2018-12-17T06:44:44.900Z,2.61
2018-12-17T06:45:40.960Z,2.64
2018-12-17T06:46:38.035Z,2.64
2018-12-17T06:47:35.092Z,2.67
2018-12-17T06:48:32.166Z,2.67
2018-12-17T06:49:29.225Z,2.67
2018-12-17T06:50:26.304Z,2.67
2018-12-17T06:51:23.381Z,2.69
2018-12-17T06:52:20.429Z,2.69
2018-12-17T06:53:17.495Z,2.71
2018-12-17T06:54:14.924Z,2.71
2018-12-17T06:55:11.634Z,2.72
2018-12-17T06:56:08.691Z,2.71
2018-12-17T06:57:05.772Z,2.71
2018-12-17T06:58:02.828Z,2.71
2018-12-17T06:58:59.897Z,2.72
2018-12-17T06:59:56.971Z,2.73
2018-12-17T07:00:54.028Z,2.73
2018-12-17T07:01:51.096Z,2.73
2018-12-17T07:02:48.176Z,2.73
2018-12-17T07:03:45.237Z,2.71
2018-12-17T07:04:42.297Z,2.72
2018-12-17T07:05:39.363Z,2.71
2018-12-17T07:06:36.429Z,2.73
2018-12-17T07:07:33.496Z,2.74
2018-12-17T07:08:30.564Z,2.74
2018-12-17T07:09:27.621Z,2.77
2018-12-17T07:10:24.754Z,2.77
2018-12-17T07:11:21.764Z,2.76
2018-12-17T07:12:18.829Z,2.76
2018-12-17T07:13:15.898Z,2.75
2018-12-17T07:14:12.963Z,2.75
2018-12-17T07:15:10.031Z,2.75
2018-12-17T07:16:07.087Z,2.75
2018-12-17T07:17:04.172Z,2.77
2018-12-17T07:18:01.285Z,2.78
2018-12-17T07:18:58.300Z,2.75
2018-12-17T07:19:55.364Z,2.74
2018-12-17T07:20:52.423Z,2.77
2018-12-17T07:21:49.493Z,2.78
2018-12-17T07:22:46.559Z,2.78
2018-12-17T07:23:43.643Z,2.77
2018-12-17T07:24:40.702Z,2.79
2018-12-17T07:25:37.773Z,2.80
2018-12-17T07:26:34.834Z,2.82
2018-12-17T07:27:31.900Z,2.81
2018-12-17T07:28:28.963Z,2.83
2018-12-17T07:29:26.020Z,2.82
2018-12-17T07:30:23.094Z,2.83
2018-12-17T07:31:20.167Z,2.79
2018-12-17T07:32:18.654Z,2.79
2018-12-17T07:33:14.298Z,2.82
2018-12-17T07:34:11.362Z,2.81
2018-12-17T07:35:08.422Z,2.81
2018-12-17T07:36:05.488Z,2.79
2018-12-17T07:37:02.554Z,2.79
2018-12-17T07:37:59.631Z,2.79
2018-12-17T07:38:56.701Z,2.79
2018-12-17T07:39:53.766Z,2.81
2018-12-17T07:40:50.831Z,2.81
2018-12-17T07:41:47.894Z,2.82
2018-12-17T07:42:44.953Z,2.81
2018-12-17T07:43:42.037Z,2.82
2018-12-17T07:44:39.096Z,2.81
2018-12-17T07:45:36.166Z,2.82
2018-12-17T07:46:33.239Z,2.84
2018-12-17T07:47:30.320Z,2.85
2018-12-17T07:48:27.361Z,2.85
2018-12-17T07:49:24.435Z,2.86
2018-12-17T07:50:21.491Z,2.86
2018-12-17T07:51:18.563Z,2.84
2018-12-17T07:52:15.636Z,2.84
2018-12-17T07:53:12.700Z,2.84
2018-12-17T07:54:09.761Z,2.86
2018-12-17T07:55:06.819Z,2.88
2018-12-17T07:56:03.898Z,2.88
2018-12-17T07:57:00.973Z,2.91
2018-12-17T07:57:58.029Z,2.91
2018-12-17T07:58:55.352Z,2.94
2018-12-17T07:59:56.648Z,2.94
2018-12-17T08:00:49.234Z,2.95
2018-12-17T08:01:46.297Z,2.97
2018-12-17T08:02:43.359Z,2.97
2018-12-17T08:03:40.428Z,2.98
2018-12-17T08:04:37.488Z,2.99
2018-12-17T08:05:34.567Z,3.01
2018-12-17T08:06:31.629Z,3.00
2018-12-17T08:07:29.220Z,2.99
2018-12-17T08:08:25.761Z,2.99
2018-12-17T08:09:22.818Z,2.99
2018-12-17T08:10:19.892Z,3.00
2018-12-17T08:11:16.971Z,3.00
2018-12-17T08:12:14.046Z,3.00
2018-12-17T08:13:11.096Z,3.02
2018-12-17T08:14:08.162Z,3.01
2018-12-17T08:15:05.228Z,3.00
2018-12-17T08:16:02.297Z,3.00
2018-12-17T08:16:59.374Z,3.04
2018-12-17T08:17:56.418Z,3.03
2018-12-17T08:18:53.493Z,3.02
2018-12-17T08:19:50.560Z,3.02
2018-12-17T08:20:47.661Z,3.03
2018-12-17T08:21:45.692Z,3.03
2018-12-17T08:22:41.773Z,3.03
2018-12-17T08:23:39.819Z,3.01
2018-12-17T08:24:35.891Z,3.04
2018-12-17T08:25:32.958Z,3.02
2018-12-17T08:26:30.022Z,3.03
2018-12-17T08:27:27.102Z,3.06
2018-12-17T08:28:24.158Z,3.06
2018-12-17T08:29:21.263Z,3.03
2018-12-17T08:30:18.290Z,3.03
2018-12-17T08:31:15.378Z,3.06
2018-12-17T08:32:12.427Z,3.06
2018-12-17T08:33:09.597Z,3.03
2018-12-17T08:34:06.564Z,3.07
2018-12-17T08:35:03.629Z,3.07
2018-12-17T08:36:00.691Z,3.11
2018-12-17T08:36:57.764Z,3.11
2018-12-17T08:37:54.822Z,3.10
2018-12-17T08:38:51.887Z,3.13
2018-12-17T08:39:48.959Z,3.13
2018-12-17T08:40:46.042Z,3.11
2018-12-17T08:41:43.101Z,3.16
2018-12-17T08:42:40.684Z,3.18
2018-12-17T08:43:37.217Z,3.19
2018-12-17T08:44:34.288Z,3.18
2018-12-17T08:45:31.351Z,3.16
2018-12-17T08:46:28.419Z,3.16
2018-12-17T08:47:25.597Z,3.18
2018-12-17T08:48:22.558Z,3.21
2018-12-17T08:49:19.626Z,3.20
2018-12-17T08:50:16.692Z,3.21
2018-12-17T08:51:13.763Z,3.21
2018-12-17T08:52:10.826Z,3.21
2018-12-17T08:53:07.889Z,3.22
2018-12-17T08:54:04.962Z,3.20
2018-12-17T08:55:02.025Z,3.20
2018-12-17T08:55:59.093Z,3.20
2018-12-17T08:56:56.174Z,3.24
2018-12-17T08:57:53.221Z,3.26
2018-12-17T08:58:50.290Z,3.25
2018-12-17T08:59:47.347Z,3.25
2018-12-17T09:00:44.428Z,3.24
2018-12-17T09:01:42.493Z,3.24
2018-12-17T09:02:38.562Z,3.23
2018-12-17T09:03:35.626Z,3.22
2018-12-17T09:04:32.694Z,3.23
2018-12-17T09:05:29.757Z,3.21
2018-12-17T09:06:26.813Z,3.21
2018-12-17T09:07:24.088Z,3.24
2018-12-17T09:08:20.956Z,3.26
2018-12-17T09:09:18.029Z,3.31
2018-12-17T09:10:15.093Z,3.29
2018-12-17T09:11:12.152Z,3.31
2018-12-17T09:12:09.227Z,3.34
2018-12-17T09:13:06.289Z,3.35
2018-12-17T09:14:03.364Z,3.34
2018-12-17T09:15:00.428Z,3.34
2018-12-17T09:15:57.492Z,3.31
2018-12-17T09:16:54.562Z,3.35
2018-12-17T09:17:51.622Z,3.35
2018-12-17T09:18:48.684Z,3.35
2018-12-17T09:19:45.762Z,3.39
2018-12-17T09:20:42.819Z,3.35
2018-12-17T09:21:39.880Z,3.38
2018-12-17T09:22:36.976Z,3.35
2018-12-17T09:23:34.027Z,3.39
2018-12-17T09:24:31.087Z,3.41
2018-12-17T09:25:28.173Z,3.43
2018-12-17T09:26:25.214Z,3.44
2018-12-17T09:27:22.297Z,3.39
2018-12-17T09:28:19.354Z,3.36
2018-12-17T09:29:16.442Z,3.36
2018-12-17T09:30:18.225Z,3.39
2018-12-17T09:31:10.555Z,3.41
2018-12-17T09:32:07.632Z,3.36
2018-12-17T09:33:04.687Z,3.39
2018-12-17T09:34:01.758Z,3.39
2018-12-17T09:34:58.826Z,3.41
2018-12-17T09:35:56.101Z,3.46
2018-12-17T09:36:52.953Z,3.46
2018-12-17T09:37:50.202Z,3.45
2018-12-17T09:38:47.083Z,3.51
2018-12-17T09:39:44.146Z,3.53
2018-12-17T09:40:41.223Z,3.58
2018-12-17T09:41:38.284Z,3.54
2018-12-17T09:42:35.360Z,3.55
2018-12-17T09:43:32.420Z,3.54
2018-12-17T09:44:29.495Z,3.53
2018-12-17T09:45:27.579Z,3.54
2018-12-17T09:46:23.618Z,3.56
2018-12-17T09:47:20.688Z,3.57
2018-12-17T09:48:17.752Z,3.58
2018-12-17T09:49:14.819Z,3.61
2018-12-17T09:50:11.885Z,3.64
2018-12-17T09:51:08.952Z,3.65
2018-12-17T09:52:06.028Z,3.70
2018-12-17T09:53:03.086Z,3.74
2018-12-17T09:54:00.150Z,3.72
2018-12-17T09:54:57.218Z,3.80
2018-12-17T09:55:54.287Z,3.84
2018-12-17T09:56:51.352Z,3.84
2018-12-17T09:57:48.422Z,3.88
2018-12-17T09:58:46.485Z,3.86
2018-12-17T09:59:42.547Z,3.84
2018-12-17T10:00:39.621Z,3.89
2018-12-17T10:01:36.683Z,3.93
2018-12-17T10:02:33.751Z,3.95
2018-12-17T10:03:30.813Z,3.98
2018-12-17T10:04:28.076Z,4.00
2018-12-17T10:05:24.953Z,3.96
2018-12-17T10:06:22.023Z,3.94
2018-12-17T10:07:19.106Z,3.93
2018-12-17T10:08:16.147Z,3.98
2018-12-17T10:09:13.218Z,4.05
2018-12-17T10:10:10.274Z,4.07
2018-12-17T10:11:07.357Z,4.05
2018-12-17T10:12:04.430Z,4.05
2018-12-17T10:13:01.489Z,4.03
2018-12-17T10:13:58.559Z,4.03
2018-12-17T10:14:55.693Z,4.07
2018-12-17T10:15:52.681Z,4.03
2018-12-17T10:16:49.759Z,4.05
2018-12-17T10:17:46.810Z,4.07
2018-12-17T10:18:43.889Z,4.11
2018-12-17T10:19:40.957Z,4.17
2018-12-17T10:20:38.017Z,4.15
2018-12-17T10:21:35.080Z,4.21
2018-12-17T10:22:32.148Z,4.19
2018-12-17T10:23:29.207Z,4.11
2018-12-17T10:24:26.277Z,4.11
2018-12-17T10:25:23.351Z,4.07
2018-12-17T10:26:20.417Z,4.05
2018-12-17T10:27:17.589Z,4.03
2018-12-17T10:28:14.546Z,4.11
2018-12-17T10:29:11.614Z,4.11
2018-12-17T10:30:08.684Z,4.09
2018-12-17T10:31:05.983Z,4.09
2018-12-17T10:32:02.818Z,4.09
2018-12-17T10:32:59.889Z,4.11
2018-12-17T10:33:56.958Z,4.07
2018-12-17T10:34:54.016Z,4.01
2018-12-17T10:35:51.091Z,4.01
2018-12-17T10:36:48.146Z,3.99
2018-12-17T10:37:45.215Z,4.03
2018-12-17T10:38:42.275Z,4.03
2018-12-17T10:39:39.351Z,4.03
2018-12-17T10:40:36.420Z,4.05
2018-12-17T10:41:33.584Z,4.07
2018-12-17T10:42:30.579Z,4.09
2018-12-17T10:43:27.603Z,4.07
2018-12-17T10:44:24.680Z,4.03
2018-12-17T10:45:21.737Z,4.07
2018-12-17T10:46:18.812Z,4.07
2018-12-17T10:47:15.881Z,4.09
2018-12-17T10:48:12.972Z,4.07
2018-12-17T10:49:10.029Z,4.09
2018-12-17T10:50:07.079Z,4.09
2018-12-17T10:51:04.138Z,4.11
2018-12-17T10:52:01.227Z,4.15
2018-12-17T10:52:58.285Z,4.21
2018-12-17T10:53:55.341Z,4.19
2018-12-17T10:54:52.411Z,4.23
2018-12-17T10:55:49.478Z,4.30
2018-12-17T10:56:46.540Z,4.30
2018-12-17T10:57:43.599Z,4.26
2018-12-17T10:58:40.673Z,4.21
2018-12-17T10:59:37.837Z,4.21
2018-12-17T11:00:39.358Z,4.25
2018-12-17T11:01:32.539Z,4.30
2018-12-17T11:02:28.958Z,4.36
2018-12-17T11:03:26.005Z,4.46
2018-12-17T11:04:23.065Z,4.38
2018-12-17T11:05:20.141Z,4.40
2018-12-17T11:06:17.205Z,4.48
2018-12-17T11:07:14.272Z,4.52
2018-12-17T11:08:11.351Z,4.55
2018-12-17T11:09:08.406Z,4.48
2018-12-17T11:10:05.596Z,4.42
2018-12-17T11:11:02.534Z,4.36
2018-12-17T11:11:59.612Z,4.36
2018-12-17T11:12:56.670Z,4.32
2018-12-17T11:13:53.734Z,4.30
2018-12-17T11:14:50.810Z,4.34
2018-12-17T11:15:47.876Z,4.28
2018-12-17T11:16:44.949Z,4.28
2018-12-17T11:17:42.009Z,4.26
2018-12-17T11:18:39.068Z,4.32
2018-12-17T11:19:36.139Z,4.30
2018-12-17T11:20:33.201Z,4.32
2018-12-17T11:21:30.267Z,4.28
2018-12-17T11:22:27.342Z,4.26
2018-12-17T11:23:24.438Z,4.15
2018-12-17T11:24:21.569Z,4.15
2018-12-17T11:25:18.540Z,4.21
2018-12-17T11:26:15.604Z,4.19
2018-12-17T11:27:12.674Z,4.19
2018-12-17T11:28:09.730Z,4.19
2018-12-17T11:29:06.806Z,4.15
2018-12-17T11:30:03.927Z,4.19
2018-12-17T11:31:00.959Z,4.17
2018-12-17T11:31:58.025Z,4.19
2018-12-17T11:32:55.065Z,4.19
2018-12-17T11:33:52.127Z,4.28
2018-12-17T11:34:49.200Z,4.32
2018-12-17T11:35:46.271Z,4.40
2018-12-17T11:36:43.334Z,4.42
2018-12-17T11:37:40.404Z,4.38
2018-12-17T11:38:37.584Z,4.38
2018-12-17T11:39:34.527Z,4.38
2018-12-17T11:40:31.611Z,4.42
2018-12-17T11:41:28.669Z,4.44
2018-12-17T11:42:25.738Z,4.46
2018-12-17T11:43:22.799Z,4.46
2018-12-17T11:44:19.858Z,4.46
2018-12-17T11:45:16.952Z,4.52
2018-12-17T11:46:14.007Z,4.55
2018-12-17T11:47:11.069Z,4.55
2018-12-17T11:48:08.129Z,4.65
2018-12-17T11:49:05.201Z,4.73
2018-12-17T11:50:02.268Z,4.82
2018-12-17T11:50:59.331Z,4.92
2018-12-17T11:51:56.405Z,5.09
2018-12-17T11:52:53.576Z,5.21
2018-12-17T11:53:50.532Z,5.30
2018-12-17T11:54:47.589Z,5.32
2018-12-17T11:55:44.668Z,5.40
2018-12-17T11:56:41.735Z,5.38
2018-12-17T11:57:38.792Z,5.65
2018-12-17T11:58:35.877Z,5.61
2018-12-17T11:59:32.929Z,5.51
2018-12-17T12:00:30.003Z,5.44
2018-12-17T12:01:27.056Z,5.36
2018-12-17T12:02:24.135Z,5.32
2018-12-17T12:03:21.194Z,5.26
2018-12-17T12:04:18.258Z,5.23
2018-12-17T12:05:15.338Z,5.32
2018-12-17T12:06:14.248Z,5.28
2018-12-17T12:07:09.465Z,5.30
2018-12-17T12:08:06.513Z,5.25
2018-12-17T12:09:03.592Z,5.19
2018-12-17T12:10:00.656Z,5.19
2018-12-17T12:10:57.723Z,5.28
2018-12-17T12:11:54.794Z,5.36
2018-12-17T12:12:51.882Z,5.42
2018-12-17T12:13:48.949Z,5.46
2018-12-17T12:14:45.989Z,5.38
2018-12-17T12:15:43.058Z,5.42
2018-12-17T12:16:40.182Z,5.44
2018-12-17T12:17:37.188Z,5.46
2018-12-17T12:18:34.252Z,5.42
2018-12-17T12:19:31.315Z,5.38
2018-12-17T12:20:28.389Z,5.38
2018-12-17T12:21:25.608Z,5.38
2018-12-17T12:22:22.525Z,5.46
2018-12-17T12:23:19.782Z,5.42
2018-12-17T12:24:16.654Z,5.42
2018-12-17T12:25:13.719Z,5.44
2018-12-17T12:26:10.793Z,5.50
2018-12-17T12:27:07.867Z,5.53
2018-12-17T12:28:04.917Z,5.44
2018-12-17T12:29:01.993Z,5.44
2018-12-17T12:30:00.060Z,5.52
2018-12-17T12:31:00.468Z,5.63
2018-12-17T12:31:53.227Z,5.53
2018-12-17T12:32:50.259Z,5.55
2018-12-17T12:33:47.322Z,5.55
2018-12-17T12:34:44.381Z,5.53
2018-12-17T12:35:41.932Z,5.48
2018-12-17T12:36:38.548Z,5.55
2018-12-17T12:37:35.585Z,5.61
2018-12-17T12:38:32.690Z,5.59
2018-12-17T12:39:29.715Z,5.57